createdAt,value
2019-04-16T00:02:57.689Z,40.83
2019-04-16T00:08:03.063Z,41.63
2019-04-16T00:13:27.008Z,41.07
2019-04-16T00:18:30.741Z,43.20
2019-04-16T00:23:38.483Z,42.53
2019-04-16T00:28:42.096Z,41.40
2019-04-16T00:33:45.659Z,40.27
2019-04-16T00:38:53.819Z,43.33
2019-04-16T00:43:54.628Z,41.00
2019-04-16T00:48:58.361Z,40.23
2019-04-16T00:54:02.080Z,40.63
2019-04-16T00:59:05.791Z,40.20
2019-04-16T01:04:09.472Z,39.33
2019-04-16T01:09:13.222Z,41.17
2019-04-16T01:14:16.809Z,44.40
2019-04-16T01:19:20.420Z,41.87
2019-04-16T01:24:24.116Z,40.17
2019-04-16T01:29:27.928Z,39.43
2019-04-16T01:34:47.084Z,40.33
2019-04-16T01:40:03.861Z,42.17
2019-04-16T01:45:07.659Z,40.20
2019-04-16T01:50:13.919Z,39.00
2019-04-16T01:55:17.380Z,39.00
2019-04-16T02:00:21.105Z,39.00
2019-04-16T02:05:24.867Z,40.27
2019-04-16T02:10:28.580Z,46.50
2019-04-16T02:15:32.241Z,41.57
2019-04-16T02:20:39.493Z,44.88
2019-04-16T02:25:41.974Z,43.10
2019-04-16T02:30:46.116Z,43.08
2019-04-16T02:35:49.782Z,43.60
2019-04-16T02:40:53.537Z,42.87
2019-04-16T02:45:58.763Z,40.70
2019-04-16T02:51:08.593Z,36.65
2019-04-16T02:56:30.728Z,37.03
2019-04-16T03:01:42.292Z,36.60
2019-04-16T03:06:46.096Z,38.67
2019-04-16T03:11:49.948Z,38.17
2019-04-16T03:17:11.886Z,39.80
2019-04-16T03:22:15.708Z,38.80
2019-04-16T03:27:22.064Z,37.27
2019-04-16T03:32:29.452Z,37.20
2019-04-16T03:37:30.281Z,37.90
2019-04-16T03:42:35.132Z,36.67
2019-04-16T03:47:38.819Z,39.10
2019-04-16T03:52:45.731Z,36.70
2019-04-16T03:57:47.851Z,37.57
2019-04-16T04:02:55.174Z,36.37
2019-04-16T04:07:57.144Z,36.40
2019-04-16T04:13:00.779Z,36.20
2019-04-16T04:18:08.026Z,41.47
2019-04-16T04:23:09.989Z,37.47
2019-04-16T04:28:18.549Z,37.73
2019-04-16T04:33:23.354Z,37.83
2019-04-16T04:38:27.087Z,40.10
2019-04-16T04:43:31.993Z,40.23
2019-04-16T04:48:36.171Z,41.20
2019-04-16T04:53:39.868Z,41.60
2019-04-16T04:58:43.512Z,50.60
2019-04-16T05:03:54.495Z,48.63
2019-04-16T05:09:00.465Z,77.00
2019-04-16T05:14:03.693Z,82.77
2019-04-16T05:19:07.416Z,54.57
2019-04-16T05:24:11.186Z,51.97
2019-04-16T05:29:17.072Z,50.23
2019-04-16T05:34:20.097Z,55.63
2019-04-16T05:39:26.685Z,54.83
2019-04-16T05:44:33.210Z,56.80
2019-04-16T05:49:34.217Z,59.40
2019-04-16T05:54:55.743Z,62.05
2019-04-16T05:59:59.314Z,70.30
2019-04-16T06:05:03.111Z,73.67
2019-04-16T06:10:07.873Z,81.10
2019-04-16T06:15:13.255Z,68.50
2019-04-16T06:20:27.736Z,61.87
2019-04-16T06:25:42.308Z,64.70
2019-04-16T06:30:50.453Z,64.62
2019-04-16T06:35:58.262Z,64.60
2019-04-16T06:41:04.222Z,64.62
2019-04-16T06:46:12.639Z,58.80
2019-04-16T06:51:34.287Z,51.67
2019-04-16T06:56:42.237Z,51.00
2019-04-16T07:01:50.299Z,50.30
2019-04-16T07:07:13.318Z,50.07
2019-04-16T07:12:18.653Z,49.77
2019-04-16T07:17:22.519Z,49.43
2019-04-16T07:22:26.209Z,49.30
2019-04-16T07:27:36.119Z,49.30
2019-04-16T07:37:59.464Z,47.63
2019-04-16T07:43:21.088Z,47.03
2019-04-16T07:48:32.899Z,47.60
2019-04-16T07:53:56.456Z,48.90
2019-04-16T07:59:01.636Z,48.53
2019-04-16T08:04:05.685Z,48.73
2019-04-16T08:09:09.402Z,49.57
2019-04-16T08:14:14.715Z,48.70
2019-04-16T08:19:18.488Z,49.00
2019-04-16T08:24:32.641Z,49.97
2019-04-16T08:29:36.255Z,50.23
2019-04-16T08:34:39.951Z,50.33
2019-04-16T08:39:43.601Z,49.87
2019-04-16T08:44:47.287Z,48.40
2019-04-16T08:49:54.135Z,49.50
2019-04-16T08:54:56.201Z,49.17
2019-04-16T08:59:59.904Z,50.03
2019-04-16T09:05:06.271Z,49.37
2019-04-16T09:10:19.098Z,49.87
2019-04-16T09:15:21.957Z,50.03
2019-04-16T09:20:27.302Z,50.70
2019-04-16T09:25:32.602Z,50.17
2019-04-16T09:30:46.610Z,50.63
2019-04-16T09:35:50.510Z,52.10
2019-04-16T09:41:08.332Z,52.15
2019-04-16T09:46:21.599Z,51.50
2019-04-16T09:56:29.927Z,53.60
2019-04-16T10:01:38.447Z,53.43
2019-04-16T10:06:42.271Z,53.53
2019-04-16T10:11:45.918Z,52.97
2019-04-16T10:16:49.674Z,53.03
2019-04-16T10:21:54.295Z,53.27
2019-04-16T10:26:59.965Z,52.60
2019-04-16T10:32:04.430Z,53.23
2019-04-16T10:37:08.092Z,54.00
2019-04-16T10:42:28.196Z,51.87
2019-04-16T10:47:42.376Z,52.33
2019-04-16T10:52:54.003Z,53.20
2019-04-16T10:58:13.603Z,52.47
2019-04-16T11:03:24.440Z,52.73
2019-04-16T11:08:28.292Z,52.73
2019-04-16T11:13:36.432Z,54.33
2019-04-16T11:18:40.620Z,53.70
2019-04-16T11:23:44.303Z,54.42
2019-04-16T11:28:48.041Z,53.70
2019-04-16T11:33:51.889Z,55.20
2019-04-16T11:38:55.545Z,54.42
2019-04-16T11:44:13.497Z,54.88
2019-04-16T11:49:05.107Z,55.35
2019-04-16T11:54:11.465Z,54.42
2019-04-16T11:59:14.194Z,55.67
2019-04-16T12:04:28.174Z,54.93
2019-04-16T12:09:33.535Z,54.77
2019-04-16T12:14:44.847Z,54.40
2019-04-16T12:19:53.106Z,53.10
2019-04-16T12:25:14.959Z,54.58
2019-04-16T12:30:36.568Z,53.50
2019-04-16T12:35:45.469Z,54.18
2019-04-16T12:40:56.616Z,53.08
2019-04-16T12:46:04.748Z,54.33
2019-04-16T12:51:10.064Z,55.93
2019-04-16T12:56:32.075Z,53.70
2019-04-16T13:01:37.344Z,56.42
2019-04-16T13:06:46.789Z,56.55
2019-04-16T13:12:09.858Z,55.67
2019-04-16T13:17:18.688Z,56.28
2019-04-16T13:22:31.012Z,56.02
2019-04-16T13:27:36.357Z,57.27
2019-04-16T13:32:40.105Z,56.40
2019-04-16T13:37:43.852Z,55.28
2019-04-16T13:42:47.472Z,56.23
2019-04-16T13:47:55.862Z,55.73
2019-04-16T13:58:13.338Z,55.48
2019-04-16T14:03:20.800Z,56.23
2019-04-16T14:08:23.894Z,55.08
2019-04-16T14:13:27.511Z,55.35
2019-04-16T14:18:32.749Z,54.38
2019-04-16T14:23:36.664Z,55.12
2019-04-16T14:28:52.081Z,54.48
2019-04-16T14:34:03.785Z,55.42
2019-04-16T14:39:16.086Z,54.80
2019-04-16T14:44:21.342Z,53.50
2019-04-16T14:49:25.101Z,54.93
2019-04-16T14:54:30.434Z,55.03
2019-04-16T14:59:44.539Z,54.98
2019-04-16T15:05:04.796Z,54.33
2019-04-16T15:10:19.447Z,55.03
2019-04-16T15:15:27.459Z,54.85
2019-04-16T15:20:48.675Z,55.70
2019-04-16T15:26:05.999Z,53.80
2019-04-16T15:31:13.888Z,54.90
2019-04-16T15:36:25.232Z,54.47
2019-04-16T15:41:49.098Z,54.13
2019-04-16T15:47:00.372Z,54.47
2019-04-16T15:52:21.863Z,53.50
2019-04-16T15:57:32.977Z,54.80
2019-04-16T16:02:41.174Z,54.00
2019-04-16T16:07:46.459Z,53.90
2019-04-16T16:12:50.976Z,53.90
2019-04-16T16:17:55.475Z,52.10
2019-04-16T16:22:59.469Z,53.27
2019-04-16T16:28:03.412Z,52.97
2019-04-16T16:33:07.115Z,52.53
2019-04-16T16:38:11.151Z,51.67
2019-04-16T16:43:16.152Z,52.23
2019-04-16T16:48:21.889Z,52.33
2019-04-16T16:53:32.594Z,51.70
2019-04-16T16:58:43.995Z,51.60
2019-04-16T17:04:01.338Z,51.70
2019-04-16T17:09:07.999Z,50.88
2019-04-16T17:14:11.631Z,51.60
2019-04-16T17:19:15.411Z,50.33
2019-04-16T17:24:19.123Z,50.40
2019-04-16T17:29:22.861Z,52.07
2019-04-16T17:34:26.723Z,52.67
2019-04-16T17:39:47.376Z,52.37
2019-04-16T17:45:09.050Z,52.43
2019-04-16T17:50:32.301Z,53.00
2019-04-16T17:55:54.002Z,55.40
2019-04-16T18:01:16.058Z,52.80
2019-04-16T18:06:21.486Z,52.20
2019-04-16T18:11:26.841Z,51.87
2019-04-16T18:16:38.228Z,51.30
2019-04-16T18:21:43.615Z,51.53
2019-04-16T18:27:00.280Z,50.00
2019-04-16T18:32:14.692Z,46.83
2019-04-16T18:37:20.194Z,48.93
2019-04-16T18:42:41.887Z,54.60
2019-04-16T18:48:01.068Z,55.57
2019-04-16T18:57:55.672Z,70.43
2019-04-16T19:02:59.534Z,79.55
2019-04-16T19:08:05.190Z,72.03
2019-04-16T19:13:11.495Z,68.63
2019-04-16T19:18:19.499Z,89.60
2019-04-16T19:23:21.383Z,58.33
2019-04-16T19:28:25.653Z,58.20
2019-04-16T19:33:33.344Z,55.25
2019-04-16T19:38:35.869Z,53.30
2019-04-16T19:43:40.108Z,68.27
2019-04-16T19:48:44.367Z,57.50
2019-04-16T19:53:48.567Z,58.13
2019-04-16T19:58:52.518Z,58.83
2019-04-16T20:03:56.419Z,59.37
2019-04-16T20:09:00.214Z,57.07
2019-04-16T20:14:04.026Z,58.00
2019-04-16T20:19:08.006Z,53.17
2019-04-16T20:24:11.730Z,52.73
2019-04-16T20:29:15.714Z,52.23
2019-04-16T20:34:19.531Z,51.23
2019-04-16T20:39:23.199Z,76.73
2019-04-16T20:44:26.929Z,68.23
2019-04-16T20:49:30.603Z,99.67
2019-04-16T20:54:34.425Z,78.30
2019-04-16T20:59:39.184Z,69.50
2019-04-16T21:04:43.044Z,70.03
2019-04-16T21:09:46.785Z,51.17
2019-04-16T21:14:50.919Z,49.80
2019-04-16T21:19:55.807Z,48.93
2019-04-16T21:24:59.593Z,50.00
2019-04-16T21:30:11.171Z,73.67
2019-04-16T21:35:31.700Z,59.63
2019-04-16T21:40:34.525Z,49.38
2019-04-16T21:45:38.233Z,51.05
2019-04-16T21:50:44.520Z,56.73
2019-04-16T21:55:47.080Z,60.70
2019-04-16T22:00:53.954Z,54.83
2019-04-16T22:05:57.987Z,50.57
2019-04-16T22:11:01.836Z,47.27
2019-04-16T22:16:05.546Z,48.90
2019-04-16T22:21:10.960Z,55.23
2019-04-16T22:26:14.628Z,50.60
2019-04-16T22:31:20.893Z,52.83
2019-04-16T22:36:23.754Z,47.90
2019-04-16T22:41:35.023Z,44.83
2019-04-16T22:46:42.935Z,46.30
2019-04-16T22:51:46.565Z,46.40
2019-04-16T22:56:51.942Z,46.37
2019-04-16T23:01:55.614Z,43.10
2019-04-16T23:06:59.363Z,45.30
2019-04-16T23:12:03.129Z,48.43
2019-04-16T23:17:06.777Z,45.57
2019-04-16T23:22:14.189Z,45.70
2019-04-16T23:27:15.613Z,45.27
2019-04-16T23:32:19.248Z,48.77
2019-04-16T23:37:23.933Z,45.53
2019-04-16T23:42:27.697Z,44.73
2019-04-16T23:47:42.869Z,44.77
2019-04-16T23:53:00.556Z,44.97
2019-04-16T23:58:05.932Z,43.73
